Ana Sayfa
METAR-TAF:

METAR-TAF

Havaalanları :

Bryan, Teksas, Amerika Birleşik Devletleri

Enlem: 30-42-56N, Boylam: 096-19-53W, yükseklik: 112 m

Güncel hava durumu gözlemi

Rapor saat 06:35 UTC de 25 dakika önce yapıldı.
Rüzgar güney/güneydoğudan 12 kt ve 18 kt'a kadar ani rüzgarlar
Sıcaklık 25°C
Nem 89%
Basınç 1014 hPa
Görüş mesafesi: 16.1 km
2000 ft yükseklikte parçalı çok bulutlu
2800 ft yükseklikte çok bulutlu

METAR: KCFD 230635Z AUTO 15012G18KT 10SM BKN020 OVC028 25/23 A2993 RMK AO2 T02540233

Saat: 01:00 (07:00 UTC)


TAF: eksik

4.000'den fazla havaalanı için hava durumu gözlemleri ve tahminleri (METAR ve TAF raporları).

Kullanılabilir istasyonlar harita üzerinde sarı ve kırmızı noktalarla gösterilir.

İstasyonun adını görmek için fareyi noktanın üzerinde gezdirin.

Sonrasında hava gözlem ve tahminlerini görmek için tıklayın.

Haritayı değiştirmek için: yaklaştırmak için siyah artı işaretli yeşil düğmeye ve uzaklaştırmak için de eksi işaretli düğmeye hızla tıklayın; bitişik haritalar için yeşil okları kullanın.


METAR-TAF: